sensor_id;sensor_type;location;lat;lon;timestamp;temperature;humidity
47660;DHT22;33403;43.608;1.458;2023-06-10T00:00:39;17.10;99.90
47660;DHT22;33403;43.608;1.458;2023-06-10T00:03:07;17.10;99.90
47660;DHT22;33403;43.608;1.458;2023-06-10T00:05:34;17.10;99.90
47660;DHT22;33403;43.608;1.458;2023-06-10T00:08:00;17.10;99.90
47660;DHT22;33403;43.608;1.458;2023-06-10T00:10:35;17.10;99.90
47660;DHT22;33403;43.608;1.458;2023-06-10T00:13:02;17.00;99.90
47660;DHT22;33403;43.608;1.458;2023-06-10T00:15:29;16.90;99.90
47660;DHT22;33403;43.608;1.458;2023-06-10T00:17:55;17.00;99.90
47660;DHT22;33403;43.608;1.458;2023-06-10T00:20:21;17.00;99.90
47660;DHT22;33403;43.608;1.458;2023-06-10T00:22:51;16.90;99.90
47660;DHT22;33403;43.608;1.458;2023-06-10T00:25:17;16.90;99.90
47660;DHT22;33403;43.608;1.458;2023-06-10T00:27:43;16.90;99.90
47660;DHT22;33403;43.608;1.458;2023-06-10T00:30:09;17.00;99.90
47660;DHT22;33403;43.608;1.458;2023-06-10T00:32:36;16.90;99.90
47660;DHT22;33403;43.608;1.458;2023-06-10T00:35:02;16.90;99.90
47660;DHT22;33403;43.608;1.458;2023-06-10T00:37:28;16.90;99.90
47660;DHT22;33403;43.608;1.458;2023-06-10T00:39:55;16.90;99.90
47660;DHT22;33403;43.608;1.458;2023-06-10T00:42:21;16.90;99.90
47660;DHT22;33403;43.608;1.458;2023-06-10T00:44:50;16.90;99.90
47660;DHT22;33403;43.608;1.458;2023-06-10T00:47:16;16.90;99.90
47660;DHT22;33403;43.608;1.458;2023-06-10T00:49:42;16.90;99.90
47660;DHT22;33403;43.608;1.458;2023-06-10T00:52:08;16.90;99.90
47660;DHT22;33403;43.608;1.458;2023-06-10T00:54:36;16.90;99.90
47660;DHT22;33403;43.608;1.458;2023-06-10T00:57:03;16.90;99.90
47660;DHT22;33403;43.608;1.458;2023-06-10T00:59:29;16.90;99.90
47660;DHT22;33403;43.608;1.458;2023-06-10T01:01:56;16.90;99.90
47660;DHT22;33403;43.608;1.458;2023-06-10T01:04:22;16.90;99.90
47660;DHT22;33403;43.608;1.458;2023-06-10T01:12:43;16.90;99.90
47660;DHT22;33403;43.608;1.458;2023-06-10T01:15:15;16.90;99.90
47660;DHT22;33403;43.608;1.458;2023-06-10T01:18:04;16.90;99.90
47660;DHT22;33403;43.608;1.458;2023-06-10T01:20:36;16.80;99.90
47660;DHT22;33403;43.608;1.458;2023-06-10T01:23:06;16.80;99.90
47660;DHT22;33403;43.608;1.458;2023-06-10T01:25:32;16.80;99.90
47660;DHT22;33403;43.608;1.458;2023-06-10T01:28:13;16.70;99.90
47660;DHT22;33403;43.608;1.458;2023-06-10T01:33:28;16.70;99.90
47660;DHT22;33403;43.608;1.458;2023-06-10T01:35:58;16.80;99.90
47660;DHT22;33403;43.608;1.458;2023-06-10T01:38:32;16.80;99.90
47660;DHT22;33403;43.608;1.458;2023-06-10T01:40:58;16.80;99.90
47660;DHT22;33403;43.608;1.458;2023-06-10T01:43:25;16.80;99.90
47660;DHT22;33403;43.608;1.458;2023-06-10T01:45:51;16.80;99.90
47660;DHT22;33403;43.608;1.458;2023-06-10T01:48:16;16.80;99.90
47660;DHT22;33403;43.608;1.458;2023-06-10T01:50:42;16.80;99.90
47660;DHT22;33403;43.608;1.458;2023-06-10T01:53:09;16.80;99.90
47660;DHT22;33403;43.608;1.458;2023-06-10T01:55:35;16.70;99.90
47660;DHT22;33403;43.608;1.458;2023-06-10T01:58:01;16.80;99.90
47660;DHT22;33403;43.608;1.458;2023-06-10T02:00:26;16.80;99.90
47660;DHT22;33403;43.608;1.458;2023-06-10T02:02:52;16.70;99.90
47660;DHT22;33403;43.608;1.458;2023-06-10T02:05:18;16.80;99.90
47660;DHT22;33403;43.608;1.458;2023-06-10T02:07:44;16.70;99.90
47660;DHT22;33403;43.608;1.458;2023-06-10T02:10:09;16.70;99.90
47660;DHT22;33403;43.608;1.458;2023-06-10T02:12:35;16.70;99.90
47660;DHT22;33403;43.608;1.458;2023-06-10T02:15:01;16.70;99.90
47660;DHT22;33403;43.608;1.458;2023-06-10T02:17:26;16.70;99.90
47660;DHT22;33403;43.608;1.458;2023-06-10T02:19:53;16.70;99.90
47660;DHT22;33403;43.608;1.458;2023-06-10T02:22:22;16.70;99.90
47660;DHT22;33403;43.608;1.458;2023-06-10T02:24:48;16.80;99.90
47660;DHT22;33403;43.608;1.458;2023-06-10T02:27:15;16.80;99.90
47660;DHT22;33403;43.608;1.458;2023-06-10T02:29:41;16.70;99.90
47660;DHT22;33403;43.608;1.458;2023-06-10T02:32:08;16.70;99.90
47660;DHT22;33403;43.608;1.458;2023-06-10T02:34:33;16.70;99.90
47660;DHT22;33403;43.608;1.458;2023-06-10T02:37:00;16.70;99.90
47660;DHT22;33403;43.608;1.458;2023-06-10T02:39:27;16.70;99.90
47660;DHT22;33403;43.608;1.458;2023-06-10T02:41:53;16.60;99.90
47660;DHT22;33403;43.608;1.458;2023-06-10T02:44:19;16.60;99.90
47660;DHT22;33403;43.608;1.458;2023-06-10T02:46:45;16.60;99.90
47660;DHT22;33403;43.608;1.458;2023-06-10T02:49:11;16.60;99.90
47660;DHT22;33403;43.608;1.458;2023-06-10T02:51:37;16.70;99.90
47660;DHT22;33403;43.608;1.458;2023-06-10T02:54:03;16.70;99.90
47660;DHT22;33403;43.608;1.458;2023-06-10T02:56:28;16.70;99.90
47660;DHT22;33403;43.608;1.458;2023-06-10T02:58:54;16.70;99.90
47660;DHT22;33403;43.608;1.458;2023-06-10T03:01:21;16.70;99.90
47660;DHT22;33403;43.608;1.458;2023-06-10T03:03:46;16.70;99.90
47660;DHT22;33403;43.608;1.458;2023-06-10T03:06:13;16.70;99.90
47660;DHT22;33403;43.608;1.458;2023-06-10T03:08:39;16.70;99.90
47660;DHT22;33403;43.608;1.458;2023-06-10T03:11:05;16.60;99.90
47660;DHT22;33403;43.608;1.458;2023-06-10T03:13:32;16.60;99.90
47660;DHT22;33403;43.608;1.458;2023-06-10T03:15:58;16.60;99.90
47660;DHT22;33403;43.608;1.458;2023-06-10T03:18:27;16.60;99.90
47660;DHT22;33403;43.608;1.458;2023-06-10T03:20:54;16.60;99.90
47660;DHT22;33403;43.608;1.458;2023-06-10T03:23:20;16.60;99.90
47660;DHT22;33403;43.608;1.458;2023-06-10T03:25:46;16.60;99.90
47660;DHT22;33403;43.608;1.458;2023-06-10T03:28:12;16.60;99.90
47660;DHT22;33403;43.608;1.458;2023-06-10T03:30:37;16.60;99.90
47660;DHT22;33403;43.608;1.458;2023-06-10T03:33:03;16.60;99.90
47660;DHT22;33403;43.608;1.458;2023-06-10T03:35:29;16.60;99.90
47660;DHT22;33403;43.608;1.458;2023-06-10T03:37:55;16.60;99.90
47660;DHT22;33403;43.608;1.458;2023-06-10T03:40:21;16.60;99.90
47660;DHT22;33403;43.608;1.458;2023-06-10T03:42:46;16.50;99.90
47660;DHT22;33403;43.608;1.458;2023-06-10T03:45:12;16.50;99.90
47660;DHT22;33403;43.608;1.458;2023-06-10T03:47:38;16.50;99.90
47660;DHT22;33403;43.608;1.458;2023-06-10T03:50:07;16.50;99.90
47660;DHT22;33403;43.608;1.458;2023-06-10T03:52:34;16.50;99.90
47660;DHT22;33403;43.608;1.458;2023-06-10T03:54:59;16.50;99.90
47660;DHT22;33403;43.608;1.458;2023-06-10T03:57:25;16.50;99.90
47660;DHT22;33403;43.608;1.458;2023-06-10T03:59:51;16.50;99.90
47660;DHT22;33403;43.608;1.458;2023-06-10T04:02:17;16.40;99.90
47660;DHT22;33403;43.608;1.458;2023-06-10T04:04:43;16.40;99.90
47660;DHT22;33403;43.608;1.458;2023-06-10T04:07:09;16.40;99.90
47660;DHT22;33403;43.608;1.458;2023-06-10T04:09:35;16.40;99.90
47660;DHT22;33403;43.608;1.458;2023-06-10T04:12:01;16.40;99.90
47660;DHT22;33403;43.608;1.458;2023-06-10T04:14:27;16.40;99.90
47660;DHT22;33403;43.608;1.458;2023-06-10T04:16:53;16.40;99.90
47660;DHT22;33403;43.608;1.458;2023-06-10T04:19:19;16.40;99.90
47660;DHT22;33403;43.608;1.458;2023-06-10T04:21:45;16.40;99.90
47660;DHT22;33403;43.608;1.458;2023-06-10T04:24:11;16.20;99.90
47660;DHT22;33403;43.608;1.458;2023-06-10T04:26:37;16.30;99.90
47660;DHT22;33403;43.608;1.458;2023-06-10T04:29:03;16.30;99.90
47660;DHT22;33403;43.608;1.458;2023-06-10T04:31:29;16.30;99.90
47660;DHT22;33403;43.608;1.458;2023-06-10T04:33:55;16.30;99.90
47660;DHT22;33403;43.608;1.458;2023-06-10T04:36:20;16.30;99.90
47660;DHT22;33403;43.608;1.458;2023-06-10T04:38:46;16.30;99.90
47660;DHT22;33403;43.608;1.458;2023-06-10T04:41:12;16.20;99.90
47660;DHT22;33403;43.608;1.458;2023-06-10T04:43:38;16.30;99.90
47660;DHT22;33403;43.608;1.458;2023-06-10T04:46:04;16.20;99.90
47660;DHT22;33403;43.608;1.458;2023-06-10T04:48:30;16.30;99.90
47660;DHT22;33403;43.608;1.458;2023-06-10T04:50:56;16.30;99.90
47660;DHT22;33403;43.608;1.458;2023-06-10T04:53:22;16.20;99.90
47660;DHT22;33403;43.608;1.458;2023-06-10T04:55:48;16.20;99.90
47660;DHT22;33403;43.608;1.458;2023-06-10T04:58:14;16.10;99.90
47660;DHT22;33403;43.608;1.458;2023-06-10T05:00:40;16.10;99.90
47660;DHT22;33403;43.608;1.458;2023-06-10T05:03:05;16.10;99.90
47660;DHT22;33403;43.608;1.458;2023-06-10T05:05:31;16.20;99.90
47660;DHT22;33403;43.608;1.458;2023-06-10T05:07:57;16.20;99.90
47660;DHT22;33403;43.608;1.458;2023-06-10T05:10:22;16.30;99.90
47660;DHT22;33403;43.608;1.458;2023-06-10T05:12:48;16.20;99.90
47660;DHT22;33403;43.608;1.458;2023-06-10T05:15:14;16.30;99.90
47660;DHT22;33403;43.608;1.458;2023-06-10T05:17:39;16.30;99.90
47660;DHT22;33403;43.608;1.458;2023-06-10T05:20:05;16.30;99.90
47660;DHT22;33403;43.608;1.458;2023-06-10T05:22:31;16.30;99.90
47660;DHT22;33403;43.608;1.458;2023-06-10T05:24:57;16.30;99.90
47660;DHT22;33403;43.608;1.458;2023-06-10T05:27:23;16.30;99.90
47660;DHT22;33403;43.608;1.458;2023-06-10T05:29:49;16.20;99.90
47660;DHT22;33403;43.608;1.458;2023-06-10T05:32:17;16.20;99.90
47660;DHT22;33403;43.608;1.458;2023-06-10T05:34:43;16.30;99.90
47660;DHT22;33403;43.608;1.458;2023-06-10T05:37:08;16.30;99.90
47660;DHT22;33403;43.608;1.458;2023-06-10T05:39:36;16.40;99.90
47660;DHT22;33403;43.608;1.458;2023-06-10T05:42:06;16.40;99.90
47660;DHT22;33403;43.608;1.458;2023-06-10T05:44:32;16.40;99.90
47660;DHT22;33403;43.608;1.458;2023-06-10T05:46:58;16.40;99.90
47660;DHT22;33403;43.608;1.458;2023-06-10T05:49:24;16.50;99.90
47660;DHT22;33403;43.608;1.458;2023-06-10T05:51:50;16.50;99.90
47660;DHT22;33403;43.608;1.458;2023-06-10T05:54:17;16.60;99.90
47660;DHT22;33403;43.608;1.458;2023-06-10T05:56:43;16.60;99.90
47660;DHT22;33403;43.608;1.458;2023-06-10T05:59:09;16.70;99.90
47660;DHT22;33403;43.608;1.458;2023-06-10T06:01:35;16.70;99.90
47660;DHT22;33403;43.608;1.458;2023-06-10T06:04:01;16.70;99.90
47660;DHT22;33403;43.608;1.458;2023-06-10T06:06:26;16.80;99.90
47660;DHT22;33403;43.608;1.458;2023-06-10T06:08:52;16.80;99.90
47660;DHT22;33403;43.608;1.458;2023-06-10T06:11:18;16.80;99.90
47660;DHT22;33403;43.608;1.458;2023-06-10T06:13:43;16.90;99.90
47660;DHT22;33403;43.608;1.458;2023-06-10T06:16:09;17.00;99.90
47660;DHT22;33403;43.608;1.458;2023-06-10T06:18:35;17.00;99.90
47660;DHT22;33403;43.608;1.458;2023-06-10T06:21:00;17.00;99.90
47660;DHT22;33403;43.608;1.458;2023-06-10T06:23:26;17.00;99.90
47660;DHT22;33403;43.608;1.458;2023-06-10T06:25:52;17.10;99.90
47660;DHT22;33403;43.608;1.458;2023-06-10T06:28:17;17.10;99.90
47660;DHT22;33403;43.608;1.458;2023-06-10T06:30:44;17.20;99.90
47660;DHT22;33403;43.608;1.458;2023-06-10T06:33:10;17.20;99.90
47660;DHT22;33403;43.608;1.458;2023-06-10T06:35:36;17.30;99.90
47660;DHT22;33403;43.608;1.458;2023-06-10T06:38:03;17.30;99.90
47660;DHT22;33403;43.608;1.458;2023-06-10T06:40:29;17.30;99.90
47660;DHT22;33403;43.608;1.458;2023-06-10T06:42:55;17.40;99.90
47660;DHT22;33403;43.608;1.458;2023-06-10T06:45:21;17.40;99.90
47660;DHT22;33403;43.608;1.458;2023-06-10T06:47:46;17.50;99.90
47660;DHT22;33403;43.608;1.458;2023-06-10T06:50:12;17.50;99.90
47660;DHT22;33403;43.608;1.458;2023-06-10T06:52:37;17.60;99.90
47660;DHT22;33403;43.608;1.458;2023-06-10T06:55:03;17.60;99.90
47660;DHT22;33403;43.608;1.458;2023-06-10T06:57:29;17.70;99.90
47660;DHT22;33403;43.608;1.458;2023-06-10T06:59:55;17.70;99.90
47660;DHT22;33403;43.608;1.458;2023-06-10T07:02:20;17.80;99.90
47660;DHT22;33403;43.608;1.458;2023-06-10T07:04:46;17.80;99.90
47660;DHT22;33403;43.608;1.458;2023-06-10T07:07:14;17.90;99.90
47660;DHT22;33403;43.608;1.458;2023-06-10T07:09:40;18.00;99.90
47660;DHT22;33403;43.608;1.458;2023-06-10T07:12:06;18.00;99.90
47660;DHT22;33403;43.608;1.458;2023-06-10T07:14:32;18.00;99.90
47660;DHT22;33403;43.608;1.458;2023-06-10T07:16:58;18.10;99.90
47660;DHT22;33403;43.608;1.458;2023-06-10T07:19:24;18.10;99.90
47660;DHT22;33403;43.608;1.458;2023-06-10T07:21:49;18.10;99.90
47660;DHT22;33403;43.608;1.458;2023-06-10T07:24:15;18.20;99.90
47660;DHT22;33403;43.608;1.458;2023-06-10T07:26:41;18.30;99.90
47660;DHT22;33403;43.608;1.458;2023-06-10T07:29:06;18.30;99.90
47660;DHT22;33403;43.608;1.458;2023-06-10T07:31:32;18.40;99.90
47660;DHT22;33403;43.608;1.458;2023-06-10T07:33:58;18.40;99.90
47660;DHT22;33403;43.608;1.458;2023-06-10T07:36:23;18.40;99.90
47660;DHT22;33403;43.608;1.458;2023-06-10T07:38:49;18.50;99.90
47660;DHT22;33403;43.608;1.458;2023-06-10T07:41:15;18.50;99.90
47660;DHT22;33403;43.608;1.458;2023-06-10T07:43:43;18.60;99.90
47660;DHT22;33403;43.608;1.458;2023-06-10T07:46:09;18.60;99.90
47660;DHT22;33403;43.608;1.458;2023-06-10T07:48:34;18.70;99.90
47660;DHT22;33403;43.608;1.458;2023-06-10T07:51:00;18.70;99.90
47660;DHT22;33403;43.608;1.458;2023-06-10T07:53:25;18.80;99.90
47660;DHT22;33403;43.608;1.458;2023-06-10T07:55:51;18.80;99.90
47660;DHT22;33403;43.608;1.458;2023-06-10T07:58:17;18.90;99.90
47660;DHT22;33403;43.608;1.458;2023-06-10T08:00:42;19.00;99.90
47660;DHT22;33403;43.608;1.458;2023-06-10T08:03:08;19.10;99.90
47660;DHT22;33403;43.608;1.458;2023-06-10T08:05:34;19.10;99.90
47660;DHT22;33403;43.608;1.458;2023-06-10T08:07:59;19.20;99.90
47660;DHT22;33403;43.608;1.458;2023-06-10T08:10:25;19.40;99.90
47660;DHT22;33403;43.608;1.458;2023-06-10T08:12:51;19.50;99.90
47660;DHT22;33403;43.608;1.458;2023-06-10T08:15:16;19.50;99.90
47660;DHT22;33403;43.608;1.458;2023-06-10T08:17:42;19.60;99.90
47660;DHT22;33403;43.608;1.458;2023-06-10T08:20:08;19.70;99.90
47660;DHT22;33403;43.608;1.458;2023-06-10T08:22:33;19.80;99.90
47660;DHT22;33403;43.608;1.458;2023-06-10T08:24:59;19.90;99.90
47660;DHT22;33403;43.608;1.458;2023-06-10T08:27:25;20.00;99.90
47660;DHT22;33403;43.608;1.458;2023-06-10T08:29:51;20.10;99.90
47660;DHT22;33403;43.608;1.458;2023-06-10T08:32:16;20.20;99.90
47660;DHT22;33403;43.608;1.458;2023-06-10T08:34:42;20.30;99.90
47660;DHT22;33403;43.608;1.458;2023-06-10T08:37:08;20.40;99.90
47660;DHT22;33403;43.608;1.458;2023-06-10T08:39:33;20.50;99.90
47660;DHT22;33403;43.608;1.458;2023-06-10T08:44:43;20.70;99.90
47660;DHT22;33403;43.608;1.458;2023-06-10T08:47:16;20.80;99.90
47660;DHT22;33403;43.608;1.458;2023-06-10T08:49:44;20.80;99.90
47660;DHT22;33403;43.608;1.458;2023-06-10T08:52:17;20.90;99.90
47660;DHT22;33403;43.608;1.458;2023-06-10T08:54:59;21.00;99.90
47660;DHT22;33403;43.608;1.458;2023-06-10T08:57:26;21.10;99.90
47660;DHT22;33403;43.608;1.458;2023-06-10T08:59:55;21.20;99.90
47660;DHT22;33403;43.608;1.458;2023-06-10T09:02:21;21.30;99.90
47660;DHT22;33403;43.608;1.458;2023-06-10T09:04:47;21.40;99.90
47660;DHT22;33403;43.608;1.458;2023-06-10T09:07:15;21.50;99.90
47660;DHT22;33403;43.608;1.458;2023-06-10T09:09:45;21.60;99.90
47660;DHT22;33403;43.608;1.458;2023-06-10T09:12:12;21.60;99.90
47660;DHT22;33403;43.608;1.458;2023-06-10T09:14:38;21.70;99.90
47660;DHT22;33403;43.608;1.458;2023-06-10T09:17:05;21.80;99.90
47660;DHT22;33403;43.608;1.458;2023-06-10T09:19:31;21.90;99.90
47660;DHT22;33403;43.608;1.458;2023-06-10T09:21:58;21.90;99.90
47660;DHT22;33403;43.608;1.458;2023-06-10T09:24:24;22.00;99.90
47660;DHT22;33403;43.608;1.458;2023-06-10T09:26:54;22.10;99.90
47660;DHT22;33403;43.608;1.458;2023-06-10T09:29:27;22.10;99.90
47660;DHT22;33403;43.608;1.458;2023-06-10T09:31:52;22.20;99.90
47660;DHT22;33403;43.608;1.458;2023-06-10T09:34:18;22.30;99.90
47660;DHT22;33403;43.608;1.458;2023-06-10T09:36:44;22.40;99.90
47660;DHT22;33403;43.608;1.458;2023-06-10T09:39:16;22.40;99.90
47660;DHT22;33403;43.608;1.458;2023-06-10T09:41:42;22.40;99.90
47660;DHT22;33403;43.608;1.458;2023-06-10T09:44:16;22.50;99.90
47660;DHT22;33403;43.608;1.458;2023-06-10T09:46:44;22.60;99.90
47660;DHT22;33403;43.608;1.458;2023-06-10T09:49:10;22.70;99.90
47660;DHT22;33403;43.608;1.458;2023-06-10T09:51:36;22.80;99.90
47660;DHT22;33403;43.608;1.458;2023-06-10T09:54:04;22.90;99.90
47660;DHT22;33403;43.608;1.458;2023-06-10T09:56:37;22.90;99.90
47660;DHT22;33403;43.608;1.458;2023-06-10T09:59:04;22.90;99.90
47660;DHT22;33403;43.608;1.458;2023-06-10T10:01:33;23.00;99.90
47660;DHT22;33403;43.608;1.458;2023-06-10T10:03:59;23.00;99.90
47660;DHT22;33403;43.608;1.458;2023-06-10T10:06:25;23.00;99.90
47660;DHT22;33403;43.608;1.458;2023-06-10T10:08:51;23.10;99.90
47660;DHT22;33403;43.608;1.458;2023-06-10T10:11:19;23.10;99.90
47660;DHT22;33403;43.608;1.458;2023-06-10T10:13:49;23.10;99.90
47660;DHT22;33403;43.608;1.458;2023-06-10T10:16:17;23.20;99.90
47660;DHT22;33403;43.608;1.458;2023-06-10T10:18:47;23.20;99.90
47660;DHT22;33403;43.608;1.458;2023-06-10T10:21:16;23.30;99.90
47660;DHT22;33403;43.608;1.458;2023-06-10T10:23:57;23.40;99.90
47660;DHT22;33403;43.608;1.458;2023-06-10T10:26:26;23.40;99.90
47660;DHT22;33403;43.608;1.458;2023-06-10T10:29:07;23.40;99.90
47660;DHT22;33403;43.608;1.458;2023-06-10T10:31:36;23.50;99.90
47660;DHT22;33403;43.608;1.458;2023-06-10T10:34:07;23.50;99.90
47660;DHT22;33403;43.608;1.458;2023-06-10T10:36:35;23.60;99.90
47660;DHT22;33403;43.608;1.458;2023-06-10T10:39:02;23.70;99.90
47660;DHT22;33403;43.608;1.458;2023-06-10T10:41:30;23.80;99.90
47660;DHT22;33403;43.608;1.458;2023-06-10T10:43:56;23.80;99.90
47660;DHT22;33403;43.608;1.458;2023-06-10T10:46:22;23.80;99.90
47660;DHT22;33403;43.608;1.458;2023-06-10T10:48:53;23.90;99.90
47660;DHT22;33403;43.608;1.458;2023-06-10T10:51:20;23.90;99.90
47660;DHT22;33403;43.608;1.458;2023-06-10T10:56:38;24.00;99.90
47660;DHT22;33403;43.608;1.458;2023-06-10T10:59:04;24.00;99.90
47660;DHT22;33403;43.608;1.458;2023-06-10T11:01:48;24.00;99.90
47660;DHT22;33403;43.608;1.458;2023-06-10T11:04:17;24.00;99.90
47660;DHT22;33403;43.608;1.458;2023-06-10T11:06:52;24.10;99.90
47660;DHT22;33403;43.608;1.458;2023-06-10T11:09:28;24.10;99.90
47660;DHT22;33403;43.608;1.458;2023-06-10T11:11:57;24.10;99.90
47660;DHT22;33403;43.608;1.458;2023-06-10T11:14:29;24.30;99.90
47660;DHT22;33403;43.608;1.458;2023-06-10T11:16:57;24.40;99.90
47660;DHT22;33403;43.608;1.458;2023-06-10T11:19:37;24.70;99.90
47660;DHT22;33403;43.608;1.458;2023-06-10T11:22:06;25.10;99.90
47660;DHT22;33403;43.608;1.458;2023-06-10T11:24:32;25.70;99.90
47660;DHT22;33403;43.608;1.458;2023-06-10T11:27:21;26.10;99.90
47660;DHT22;33403;43.608;1.458;2023-06-10T11:30:18;26.60;99.90
47660;DHT22;33403;43.608;1.458;2023-06-10T11:32:45;26.10;99.90
47660;DHT22;33403;43.608;1.458;2023-06-10T11:35:16;26.90;99.90
47660;DHT22;33403;43.608;1.458;2023-06-10T11:37:41;27.10;99.90
47660;DHT22;33403;43.608;1.458;2023-06-10T11:40:07;27.00;99.90
47660;DHT22;33403;43.608;1.458;2023-06-10T11:42:39;26.40;99.90
47660;DHT22;33403;43.608;1.458;2023-06-10T11:45:06;25.80;99.90
47660;DHT22;33403;43.608;1.458;2023-06-10T11:47:33;25.40;99.90
47660;DHT22;33403;43.608;1.458;2023-06-10T11:49:59;25.00;99.90
47660;DHT22;33403;43.608;1.458;2023-06-10T11:52:30;24.80;99.90
47660;DHT22;33403;43.608;1.458;2023-06-10T11:54:57;24.80;99.90
47660;DHT22;33403;43.608;1.458;2023-06-10T11:57:23;24.70;99.90
47660;DHT22;33403;43.608;1.458;2023-06-10T11:59:49;24.70;99.90
47660;DHT22;33403;43.608;1.458;2023-06-10T12:02:15;24.70;99.90
47660;DHT22;33403;43.608;1.458;2023-06-10T12:04:41;24.80;99.90
47660;DHT22;33403;43.608;1.458;2023-06-10T12:07:07;24.90;99.90
47660;DHT22;33403;43.608;1.458;2023-06-10T12:09:33;25.00;99.90
47660;DHT22;33403;43.608;1.458;2023-06-10T12:19:58;24.70;99.90
47660;DHT22;33403;43.608;1.458;2023-06-10T12:22:25;24.70;99.90
47660;DHT22;33403;43.608;1.458;2023-06-10T12:25:05;24.60;99.90
47660;DHT22;33403;43.608;1.458;2023-06-10T12:27:32;24.50;99.90
47660;DHT22;33403;43.608;1.458;2023-06-10T12:30:00;24.30;99.90
47660;DHT22;33403;43.608;1.458;2023-06-10T12:35:06;24.80;99.90
47660;DHT22;33403;43.608;1.458;2023-06-10T12:37:32;25.00;99.90
47660;DHT22;33403;43.608;1.458;2023-06-10T12:40:02;25.10;99.90
47660;DHT22;33403;43.608;1.458;2023-06-10T12:42:29;25.00;99.90
47660;DHT22;33403;43.608;1.458;2023-06-10T12:44:56;24.90;99.90
47660;DHT22;33403;43.608;1.458;2023-06-10T12:47:36;25.10;99.90
47660;DHT22;33403;43.608;1.458;2023-06-10T12:50:04;25.20;99.90
47660;DHT22;33403;43.608;1.458;2023-06-10T12:52:30;25.40;99.90
47660;DHT22;33403;43.608;1.458;2023-06-10T12:54:57;25.80;99.90
47660;DHT22;33403;43.608;1.458;2023-06-10T12:57:22;25.90;99.90
47660;DHT22;33403;43.608;1.458;2023-06-10T12:59:48;25.80;99.90
47660;DHT22;33403;43.608;1.458;2023-06-10T13:02:22;25.60;99.90
47660;DHT22;33403;43.608;1.458;2023-06-10T13:04:50;25.50;99.90
47660;DHT22;33403;43.608;1.458;2023-06-10T13:07:16;25.30;99.90
47660;DHT22;33403;43.608;1.458;2023-06-10T13:09:42;25.10;99.90
47660;DHT22;33403;43.608;1.458;2023-06-10T13:12:08;25.00;99.90
47660;DHT22;33403;43.608;1.458;2023-06-10T13:14:35;24.90;99.90
47660;DHT22;33403;43.608;1.458;2023-06-10T13:17:03;24.90;99.90
47660;DHT22;33403;43.608;1.458;2023-06-10T13:19:31;25.20;99.90
47660;DHT22;33403;43.608;1.458;2023-06-10T13:21:57;25.30;99.90
47660;DHT22;33403;43.608;1.458;2023-06-10T13:24:23;25.20;99.90
47660;DHT22;33403;43.608;1.458;2023-06-10T13:26:48;25.20;99.90
47660;DHT22;33403;43.608;1.458;2023-06-10T13:29:14;25.10;99.90
47660;DHT22;33403;43.608;1.458;2023-06-10T13:31:40;25.00;99.90
47660;DHT22;33403;43.608;1.458;2023-06-10T13:34:06;25.00;99.90
47660;DHT22;33403;43.608;1.458;2023-06-10T13:36:32;25.00;99.90
47660;DHT22;33403;43.608;1.458;2023-06-10T13:38:58;25.10;99.90
47660;DHT22;33403;43.608;1.458;2023-06-10T13:41:23;25.00;99.90
47660;DHT22;33403;43.608;1.458;2023-06-10T13:43:50;25.10;99.90
47660;DHT22;33403;43.608;1.458;2023-06-10T13:46:15;25.00;99.90
47660;DHT22;33403;43.608;1.458;2023-06-10T13:48:41;24.90;99.90
47660;DHT22;33403;43.608;1.458;2023-06-10T13:51:07;24.90;99.90
47660;DHT22;33403;43.608;1.458;2023-06-10T13:53:34;24.90;99.90
47660;DHT22;33403;43.608;1.458;2023-06-10T13:56:00;25.10;99.90
47660;DHT22;33403;43.608;1.458;2023-06-10T13:58:26;25.10;99.90
47660;DHT22;33403;43.608;1.458;2023-06-10T14:00:52;25.10;99.90
47660;DHT22;33403;43.608;1.458;2023-06-10T14:03:17;25.10;99.90
47660;DHT22;33403;43.608;1.458;2023-06-10T14:05:43;25.10;99.90
47660;DHT22;33403;43.608;1.458;2023-06-10T14:08:09;25.10;99.90
47660;DHT22;33403;43.608;1.458;2023-06-10T14:10:34;25.20;99.90
47660;DHT22;33403;43.608;1.458;2023-06-10T14:13:00;25.40;99.90
47660;DHT22;33403;43.608;1.458;2023-06-10T14:15:26;25.30;99.90
47660;DHT22;33403;43.608;1.458;2023-06-10T14:17:51;25.10;99.90
47660;DHT22;33403;43.608;1.458;2023-06-10T14:20:17;25.20;99.90
47660;DHT22;33403;43.608;1.458;2023-06-10T14:22:43;25.30;99.90
47660;DHT22;33403;43.608;1.458;2023-06-10T14:25:08;25.30;99.90
47660;DHT22;33403;43.608;1.458;2023-06-10T14:27:34;25.30;99.90
47660;DHT22;33403;43.608;1.458;2023-06-10T14:30:00;25.20;99.90
47660;DHT22;33403;43.608;1.458;2023-06-10T14:32:25;25.10;99.90
47660;DHT22;33403;43.608;1.458;2023-06-10T14:34:51;25.30;99.90
47660;DHT22;33403;43.608;1.458;2023-06-10T14:37:17;25.50;99.90
47660;DHT22;33403;43.608;1.458;2023-06-10T14:39:42;25.70;99.90
47660;DHT22;33403;43.608;1.458;2023-06-10T14:42:08;25.60;99.90
47660;DHT22;33403;43.608;1.458;2023-06-10T14:44:34;25.60;99.90
47660;DHT22;33403;43.608;1.458;2023-06-10T14:46:59;25.60;99.90
47660;DHT22;33403;43.608;1.458;2023-06-10T14:49:25;25.60;99.90
47660;DHT22;33403;43.608;1.458;2023-06-10T14:51:51;25.70;99.90
47660;DHT22;33403;43.608;1.458;2023-06-10T14:54:16;25.80;99.90
47660;DHT22;33403;43.608;1.458;2023-06-10T14:56:42;25.80;99.90
47660;DHT22;33403;43.608;1.458;2023-06-10T14:59:08;25.80;99.90
47660;DHT22;33403;43.608;1.458;2023-06-10T15:01:34;25.90;99.90
47660;DHT22;33403;43.608;1.458;2023-06-10T15:03:59;26.00;99.90
47660;DHT22;33403;43.608;1.458;2023-06-10T15:06:25;26.10;99.90
47660;DHT22;33403;43.608;1.458;2023-06-10T15:08:51;26.10;99.90
47660;DHT22;33403;43.608;1.458;2023-06-10T15:11:17;26.10;99.90
47660;DHT22;33403;43.608;1.458;2023-06-10T15:13:43;26.20;99.90
47660;DHT22;33403;43.608;1.458;2023-06-10T15:16:08;26.30;99.90
47660;DHT22;33403;43.608;1.458;2023-06-10T15:18:34;26.30;99.90
47660;DHT22;33403;43.608;1.458;2023-06-10T15:21:00;26.20;99.90
47660;DHT22;33403;43.608;1.458;2023-06-10T15:23:25;26.20;99.90
47660;DHT22;33403;43.608;1.458;2023-06-10T15:25:51;26.00;99.90
47660;DHT22;33403;43.608;1.458;2023-06-10T15:28:17;26.20;99.90
47660;DHT22;33403;43.608;1.458;2023-06-10T15:30:43;26.20;99.90
47660;DHT22;33403;43.608;1.458;2023-06-10T15:33:08;26.20;99.90
47660;DHT22;33403;43.608;1.458;2023-06-10T15:35:34;26.00;99.90
47660;DHT22;33403;43.608;1.458;2023-06-10T15:38:00;25.90;99.90
47660;DHT22;33403;43.608;1.458;2023-06-10T15:40:25;25.70;99.90
47660;DHT22;33403;43.608;1.458;2023-06-10T15:42:51;25.60;99.90
47660;DHT22;33403;43.608;1.458;2023-06-10T15:45:17;25.60;99.90
47660;DHT22;33403;43.608;1.458;2023-06-10T15:47:43;25.70;99.90
47660;DHT22;33403;43.608;1.458;2023-06-10T15:50:09;25.80;99.90
47660;DHT22;33403;43.608;1.458;2023-06-10T15:52:35;25.70;99.90